Time;durP1;ratioP1;P1;durP2;ratioP2;P2;SDS_P1;SDS_P2;PMS_P1;PMS_P2;Temp;Humidity;BMP_temperature;BMP_pressure;BME280_temperature;BME280_humidity;BME280_pressure;Samples;Min_cycle;Max_cycle;Signal;HPM_P1;HPM_P2
2022/05/05 00:01:21;;;;;;;;;30.00;27.67;;;;;12.44;97.87;99856.19;6283832;20;3590840;-55
2022/05/05 00:03:50;;;;;;;;;32.33;31.33;;;;;12.35;99.40;99858.63;6285073;20;3604432;-57
2022/05/05 00:06:19;;;;;;;;;44.00;33.33;;;;;12.44;99.13;99850.81;6284753;20;3617313;-57
2022/05/05 00:08:48;;;;;;;;;33.33;29.67;;;;;12.31;100.00;99844.50;6317317;20;3605532;-57
2022/05/05 00:14:24;;;;;;;;;38.33;32.00;;;;;12.23;100.00;99833.38;6282097;20;2854606;-57
2022/05/05 00:17:02;;;;;;;;;36.67;33.00;;;;;12.39;99.58;99830.53;6320198;20;3569470;-47
2022/05/05 00:19:36;;;;;;;;;49.33;39.00;;;;;12.46;99.54;99832.72;6312029;20;2864931;-51
2022/05/05 00:22:07;;;;;;;;;42.33;34.67;;;;;12.46;99.31;99821.09;6311581;20;3602352;-46
2022/05/05 00:24:38;;;;;;;;;55.67;45.33;;;;;12.42;99.69;99830.31;6284866;20;3602379;-54
2022/05/05 00:27:08;;;;;;;;;38.67;33.33;;;;;12.44;100.00;99831.97;6313472;20;3590977;-49
2022/05/05 00:29:38;;;;;;;;;35.00;32.00;;;;;12.51;100.00;99835.97;6281836;20;3607501;-50
2022/05/05 00:32:07;;;;;;;;;39.33;34.33;;;;;12.52;100.00;99848.47;6318056;20;3583624;-51
2022/05/05 00:34:37;;;;;;;;;36.33;34.00;;;;;12.71;100.00;99856.16;6282277;20;2843104;-53
2022/05/05 00:37:06;;;;;;;;;45.00;35.67;;;;;12.52;100.00;99845.75;6317234;20;3609636;-49
2022/05/05 00:39:35;;;;;;;;;40.67;35.00;;;;;12.66;100.00;99849.34;6283780;20;2844096;-48
2022/05/05 00:42:11;;;;;;;;;41.33;35.33;;;;;12.70;100.00;99845.50;6315882;20;3605623;-48
2022/05/05 00:44:41;;;;;;;;;33.33;32.00;;;;;12.72;100.00;99840.88;6284395;20;3596135;-45
2022/05/05 00:47:16;;;;;;;;;35.00;32.00;;;;;12.77;99.53;99846.81;6284604;20;3576385;-50
2022/05/05 00:49:49;;;;;;;;;36.00;33.00;;;;;12.73;98.86;99845.28;6281398;20;2853616;-51
2022/05/05 00:52:18;;;;;;;;;38.00;32.67;;;;;12.60;99.96;99847.09;6316811;20;3595167;-52
2022/05/05 00:54:48;;;;;;;;;41.00;35.50;;;;;12.65;99.92;99850.34;6283297;20;2860754;-47
2022/05/05 00:57:18;;;;;;;;;39.67;34.00;;;;;12.40;100.00;99852.00;6282439;20;3605547;-46
2022/05/05 00:59:47;;;;;;;;;39.33;35.00;;;;;12.55;100.00;99850.09;6316524;20;3614915;-46
2022/05/05 01:02:17;;;;;;;;;45.00;37.33;;;;;12.45;100.00;99851.66;6283383;20;3611739;-47
2022/05/05 01:04:46;;;;;;;;;37.00;34.50;;;;;12.43;100.00;99854.47;6282611;20;2850311;-54
2022/05/05 01:07:17;;;;;;;;;42.67;35.67;;;;;12.49;100.00;99859.44;6284358;20;3600305;-52
2022/05/05 01:09:48;;;;;;;;;41.00;35.33;;;;;12.22;100.00;99858.59;6311867;20;3595112;-52
2022/05/05 01:12:19;;;;;;;;;40.00;35.00;;;;;12.21;100.00;99863.09;6283196;20;2863791;-51
2022/05/05 01:14:51;;;;;;;;;42.13;34.88;;;;;12.03;100.00;99858.91;6336195;20;3614320;-49
2022/05/05 01:17:19;;;;;;;;;40.00;36.00;;;;;12.36;100.00;99869.31;6281160;20;2865857;-49
2022/05/05 01:19:47;;;;;;;;;41.50;34.50;;;;;12.57;100.00;99871.53;6277168;20;2499318;-49
2022/05/05 01:22:20;;;;;;;;;37.00;34.00;;;;;12.58;100.00;99866.03;6281982;20;3606547;-52
2022/05/05 01:30:24;;;;;;;;;35.00;33.00;;;;;12.39;100.00;99874.47;6281047;20;2851315;-50
2022/05/05 01:32:54;;;;;;;;;33.00;33.00;;;;;12.38;100.00;99872.75;6282028;20;3592944;-45
2022/05/05 01:35:22;;;;;;;;;32.67;30.00;;;;;12.27;100.00;99878.84;6315616;20;3589829;-53
2022/05/05 01:37:52;;;;;;;;;37.33;34.00;;;;;12.03;100.00;99872.34;6280900;20;3589794;-52
2022/05/05 01:40:21;;;;;;;;;36.00;32.00;;;;;12.44;100.00;99872.34;6314221;20;3601247;-49
2022/05/05 01:42:51;;;;;;;;;43.33;34.67;;;;;12.30;100.00;99875.09;6282767;20;3610647;-54
2022/05/05 01:45:19;;;;;;;;;35.67;32.33;;;;;12.32;100.00;99881.22;6284397;20;3590843;-53
2022/05/05 01:47:49;;;;;;;;;36.33;32.00;;;;;12.40;99.29;99880.72;6281168;20;2863893;-56
2022/05/05 01:50:17;;;;;;;;;38.33;32.33;;;;;12.43;99.52;99886.78;6314815;20;3616928;-55
2022/05/05 01:52:47;;;;;;;;;38.00;34.67;;;;;12.52;99.83;99883.47;6282417;20;3594039;-54
2022/05/05 01:55:16;;;;;;;;;36.33;35.00;;;;;12.51;99.38;99888.97;6284099;20;3590993;-55
2022/05/05 01:57:45;;;;;;;;;30.00;27.00;;;;;12.52;99.83;99883.47;6278781;20;2854502;-56
2022/05/05 02:00:15;;;;;;;;;42.00;33.00;;;;;12.06;100.00;99880.25;6279567;20;3617960;-51
2022/05/05 02:02:45;;;;;;;;;32.67;32.67;;;;;12.05;100.00;99884.75;6277845;20;3588760;-54
2022/05/05 02:05:15;;;;;;;;;39.00;33.00;;;;;12.15;100.00;99876.09;6280972;20;3591936;-50
2022/05/05 02:07:46;;;;;;;;;38.00;34.67;;;;;12.59;100.00;99875.84;6278214;20;2852324;-54
2022/05/05 02:10:17;;;;;;;;;38.00;35.33;;;;;12.64;99.21;99889.03;6314651;20;3589838;-52
2022/05/05 02:12:48;;;;;;;;;37.67;33.33;;;;;12.27;100.00;99886.94;6279799;20;3594104;-46
2022/05/05 02:15:18;;;;;;;;;40.67;32.67;;;;;12.44;100.00;99885.81;6281037;20;2862884;-47
2022/05/05 02:17:46;;;;;;;;;40.33;33.33;;;;;12.16;100.00;99886.75;6311747;20;3617965;-55
2022/05/05 02:20:15;;;;;;;;;35.00;33.00;;;;;12.35;100.00;99889.13;6279928;20;2837769;-55
2022/05/05 02:22:44;;;;;;;;;33.00;30.00;;;;;12.42;100.00;99895.81;6282145;20;3590898;-56
2022/05/05 02:25:13;;;;;;;;;42.00;33.33;;;;;12.49;100.00;99901.69;6280359;20;3615835;-52
2022/05/05 02:27:49;;;;;;;;;36.33;32.00;;;;;12.60;100.00;99901.81;6317759;20;3595215;-51
2022/05/05 02:30:21;;;;;;;;;37.33;33.00;;;;;12.57;100.00;99901.16;6283607;20;3595049;-53
2022/05/05 02:32:51;;;;;;;;;36.00;34.33;;;;;12.64;98.94;99900.66;6280036;20;3575232;-49
2022/05/05 02:35:20;;;;;;;;;39.67;36.67;;;;;12.71;99.36;99918.13;6277160;20;2848220;-55
2022/05/05 02:40:38;;;;;;;;;35.00;33.00;;;;;12.61;99.11;99916.16;6283354;20;3592020;-50
2022/05/05 02:43:08;;;;;;;;;38.00;35.00;;;;;12.58;99.27;99921.75;6276298;20;2846142;-51
2022/05/05 02:45:37;;;;;;;;;43.67;36.00;;;;;12.62;98.52;99924.13;6313128;20;3620083;-55
2022/05/05 02:48:07;;;;;;;;;42.67;35.67;;;;;12.80;98.55;99927.44;6281235;20;3606546;-46
2022/05/05 02:50:36;;;;;;;;;35.33;33.00;;;;;12.54;100.00;99922.94;6310346;20;3596134;-53
2022/05/05 02:55:57;;;;;;;;;42.00;35.33;;;;;12.63;99.54;99925.84;6315338;20;3612743;-55
2022/05/05 02:58:28;;;;;;;;;31.00;30.00;;;;;12.78;98.74;99918.59;6280693;20;2851319;-47
2022/05/05 03:00:58;;;;;;;;;46.00;38.00;;;;;12.60;99.71;99922.50;6276527;20;2846135;-48
2022/05/05 03:03:27;;;;;;;;;43.67;38.00;;;;;12.45;100.00;99927.97;6311575;20;3616916;-50
2022/05/05 03:05:55;;;;;;;;;40.00;34.33;;;;;12.64;100.00;99937.53;6280052;20;3582643;-53
2022/05/05 03:08:25;;;;;;;;;39.67;35.00;;;;;12.88;99.10;99930.47;6279927;20;2858738;-46
2022/05/05 03:10:54;;;;;;;;;45.00;37.00;;;;;12.83;99.08;99937.16;6312788;20;3600245;-49
2022/05/05 03:13:23;;;;;;;;;44.67;38.67;;;;;13.00;97.96;99938.69;6280706;20;2862743;-46
2022/05/05 03:15:52;;;;;;;;;45.00;36.33;;;;;12.74;99.36;99938.59;6311048;20;3589916;-49
2022/05/05 03:18:22;;;;;;;;;33.67;33.00;;;;;12.82;98.94;99951.56;6278899;20;2850377;-52
2022/05/05 03:20:50;;;;;;;;;39.00;32.33;;;;;12.98;98.24;99946.00;6312768;20;3600207;-54
2022/05/05 03:23:19;;;;;;;;;29.33;28.00;;;;;12.69;100.00;99948.81;6280122;20;3588791;-51
2022/05/05 03:25:48;;;;;;;;;37.00;34.33;;;;;12.84;100.00;99946.94;6277003;20;3590905;-47
2022/05/05 03:28:16;;;;;;;;;42.00;33.33;;;;;12.75;100.00;99948.44;6283177;20;3604500;-53
2022/05/05 03:30:45;;;;;;;;;39.00;32.33;;;;;12.65;100.00;99940.09;6279985;20;3603384;-46
2022/05/05 03:33:15;;;;;;;;;37.67;33.00;;;;;12.57;100.00;99942.44;6284780;20;3601237;-46
2022/05/05 03:35:43;;;;;;;;;34.00;31.00;;;;;12.56;100.00;99947.91;6318293;20;3580420;-47
2022/05/05 03:38:13;;;;;;;;;39.33;36.33;;;;;12.25;100.00;99941.84;6286171;20;3595013;-49
2022/05/05 03:40:42;;;;;;;;;39.67;35.67;;;;;12.46;100.00;99942.28;6281645;20;3595000;-53
2022/05/05 03:43:11;;;;;;;;;30.33;30.00;;;;;12.49;100.00;99944.75;6281141;20;2848154;-53
2022/05/05 03:45:40;;;;;;;;;37.00;35.00;;;;;12.73;100.00;99942.28;6315278;20;3597072;-51
2022/05/05 03:48:10;;;;;;;;;35.33;34.33;;;;;12.57;100.00;99942.44;6279311;20;2852300;-54
2022/05/05 03:50:38;;;;;;;;;40.00;35.00;;;;;12.50;100.00;99943.78;6316448;20;3599269;-52
2022/05/05 03:53:08;;;;;;;;;36.67;34.00;;;;;12.65;100.00;99937.41;6282122;20;2852484;-50
2022/05/05 03:55:37;;;;;;;;;42.33;35.00;;;;;12.45;100.00;99944.13;6317753;20;3574216;-51
2022/05/05 03:58:06;;;;;;;;;40.67;34.00;;;;;12.57;100.00;99939.72;6289758;20;2848412;-46
2022/05/05 04:00:35;;;;;;;;;45.00;34.67;;;;;12.44;100.00;99936.97;6316949;20;3628399;-48
2022/05/05 04:05:50;;;;;;;;;42.00;34.50;;;;;12.87;100.00;99947.59;6322335;20;2669020;-47
2022/05/05 04:08:19;;;;;;;;;41.00;34.00;;;;;13.07;100.00;99946.28;6291662;20;3599235;-47
2022/05/05 04:10:48;;;;;;;;;38.00;34.00;;;;;12.83;100.00;99954.19;6285082;20;3610732;-48
2022/05/05 04:13:18;;;;;;;;;38.33;34.67;;;;;12.89;100.00;99953.75;6324427;20;3600254;-48
2022/05/05 04:15:48;;;;;;;;;40.33;34.00;;;;;13.22;100.00;99948.88;6289125;20;2866930;-48
2022/05/05 04:18:17;;;;;;;;;37.00;34.33;;;;;13.06;99.23;99954.44;6319248;20;3595070;-45
2022/05/05 04:20:47;;;;;;;;;38.67;35.33;;;;;13.31;99.27;99962.63;6283737;20;3610783;-48
2022/05/05 04:23:16;;;;;;;;;33.33;32.00;;;;;13.18;99.29;99964.41;6320240;20;3608611;-50
2022/05/05 04:26:06;;;;;;;;;39.33;35.00;;;;;13.02;100.00;99952.94;6287954;20;3585753;-53
2022/05/05 04:28:36;;;;;;;;;38.00;32.67;;;;;13.41;99.23;99954.78;6286769;20;2854552;-51
2022/05/05 04:31:04;;;;;;;;;34.33;32.67;;;;;13.60;98.34;99962.47;6320342;20;3587711;-51
2022/05/05 04:33:34;;;;;;;;;39.00;32.00;;;;;13.31;99.05;99961.78;6288149;20;3602415;-46
2022/05/05 04:36:04;;;;;;;;;39.67;33.67;;;;;13.20;100.00;99953.53;6318093;20;3605432;-45
2022/05/05 04:38:33;;;;;;;;;37.67;32.33;;;;;13.27;100.00;99944.97;6287591;20;2855560;-48
2022/05/05 04:41:03;;;;;;;;;36.67;32.00;;;;;13.53;100.00;99948.56;6318062;20;3566998;-49
2022/05/05 04:43:32;;;;;;;;;33.33;29.67;;;;;13.65;99.07;99952.22;6316429;20;3593125;-46
2022/05/05 04:46:00;;;;;;;;;26.67;26.67;;;;;13.65;98.62;99952.22;6291462;20;3598133;-50
2022/05/05 04:48:31;;;;;;;;;36.67;30.00;;;;;13.93;98.09;99953.84;6285987;20;3588835;-46
2022/05/05 04:50:59;;;;;;;;;35.00;32.33;;;;;14.36;95.76;99955.28;6318294;20;3593061;-55
2022/05/05 04:53:28;;;;;;;;;32.00;29.33;;;;;14.45;93.86;99962.69;6289440;20;3631504;-54
2022/05/05 04:55:57;;;;;;;;;30.33;28.33;;;;;15.39;89.57;99966.50;6286792;20;3596173;-53
2022/05/05 04:58:27;;;;;;;;;25.33;24.00;;;;;16.21;84.01;99978.97;6318892;20;2852474;-51
2022/05/05 05:00:56;;;;;;;;;28.00;28.00;;;;;15.80;85.55;99984.97;6317254;20;3596538;-55
2022/05/05 05:03:37;;;;;;;;;29.00;26.67;;;;;15.37;88.75;99982.84;6291523;20;3589789;-54
2022/05/05 05:06:10;;;;;;;;;28.33;28.33;;;;;15.17;87.90;99994.34;6287234;20;3588940;-55
2022/05/05 05:08:40;;;;;;;;;31.00;29.00;;;;;15.48;86.61;99996.44;6289839;20;3586859;-53
2022/05/05 05:11:08;;;;;;;;;29.00;27.67;;;;;15.28;87.67;99994.41;6289918;20;3606563;-52
2022/05/05 05:13:37;;;;;;;;;29.33;28.00;;;;;14.66;90.72;99990.00;6284623;20;3604627;-55
2022/05/05 05:16:06;;;;;;;;;38.33;32.67;;;;;14.45;92.63;99995.09;6287318;20;3585670;-48
2022/05/05 05:18:55;;;;;;;;;30.00;28.67;;;;;14.27;94.72;99992.78;6290272;20;3606583;-51
2022/05/05 05:21:24;;;;;;;;;34.00;31.33;;;;;14.88;92.72;99997.41;6287284;20;3577344;-46
2022/05/05 05:23:52;;;;;;;;;29.50;29.50;;;;;14.76;91.74;99998.31;6286461;20;2839872;-47
2022/05/05 05:26:21;;;;;;;;;28.00;23.33;;;;;15.00;90.04;99999.16;6285730;20;3596199;-45
2022/05/05 05:28:50;;;;;;;;;29.50;29.00;;;;;15.14;89.36;100009.84;6290768;20;3541237;-45
2022/05/05 05:31:20;;;;;;;;;29.33;27.00;;;;;15.26;89.17;100013.44;6320094;20;3597166;-48
2022/05/05 05:33:50;;;;;;;;;30.33;26.33;;;;;15.54;87.04;100012.19;6287278;20;3594026;-49
2022/05/05 05:36:20;;;;;;;;;27.67;26.67;;;;;16.31;84.47;100014.31;6286788;20;3601649;-45
2022/05/05 05:38:49;;;;;;;;;27.67;25.00;;;;;16.32;83.80;100018.75;6318108;20;3603499;-50
2022/05/05 05:41:18;;;;;;;;;25.33;25.33;;;;;16.36;84.15;100016.66;6285740;20;3600369;-47
2022/05/05 05:43:46;;;;;;;;;24.67;22.00;;;;;16.63;82.15;100014.41;6289268;20;3585780;-50
2022/05/05 05:46:16;;;;;;;;;29.00;27.00;;;;;16.85;83.31;100015.38;6283608;20;3600298;-47
2022/05/05 05:48:45;;;;;;;;;30.67;28.00;;;;;16.49;82.31;100013.84;6287303;20;3591897;-49
2022/05/05 05:51:14;;;;;;;;;25.00;25.00;;;;;15.99;82.79;100012.31;6282943;20;3589916;-48
2022/05/05 05:53:43;;;;;;;;;25.00;23.67;;;;;15.75;82.56;100004.28;6319208;20;3582506;-49
2022/05/05 05:56:11;;;;;;;;;24.00;24.00;;;;;15.40;84.32;100006.97;6287756;20;3592911;-47
2022/05/05 05:58:40;;;;;;;;;29.00;26.00;;;;;15.37;87.12;100005.34;6285766;20;3592925;-47
2022/05/05 06:01:09;;;;;;;;;30.33;27.00;;;;;14.88;89.48;100006.38;6289016;20;3602367;-46
2022/05/05 06:03:53;;;;;;;;;26.67;25.67;;;;;14.71;89.62;100013.00;6290212;20;3602381;-46
2022/05/05 06:06:25;;;;;;;;;27.33;26.00;;;;;14.54;91.09;100010.69;6288612;20;3583713;-49
2022/05/05 06:08:54;;;;;;;;;29.00;27.67;;;;;14.57;93.34;100015.88;6284468;20;3595400;-48
2022/05/05 06:11:23;;;;;;;;;32.67;28.67;;;;;14.56;92.73;100018.66;6289367;20;3600273;-47
2022/05/05 06:13:51;;;;;;;;;28.50;28.50;;;;;14.52;91.73;100015.31;6286092;20;2668002;-46
2022/05/05 06:16:20;;;;;;;;;29.33;28.00;;;;;14.85;91.39;100019.22;6288895;20;3596058;-47
2022/05/05 06:18:50;;;;;;;;;27.00;26.67;;;;;14.66;92.09;100017.88;6282059;20;2846189;-46
2022/05/05 06:21:18;;;;;;;;;31.50;30.00;;;;;14.69;92.67;100014.97;6318897;20;2657568;-50
2022/05/05 06:23:51;;;;;;;;;35.67;31.00;;;;;14.68;93.56;100013.25;6284605;20;2846656;-47
2022/05/05 06:26:21;;;;;;;;;28.67;26.00;;;;;14.93;90.61;100023.13;6315815;20;3595031;-47
2022/05/05 06:28:51;;;;;;;;;29.67;25.00;;;;;14.89;90.58;100023.44;6286901;20;3598232;-45
2022/05/05 06:31:19;;;;;;;;;29.67;28.00;;;;;15.01;91.16;100019.84;6288582;20;3604418;-46
2022/05/05 06:33:49;;;;;;;;;32.00;29.67;;;;;15.05;91.82;100020.47;6285720;20;3608615;-49
2022/05/05 06:36:18;;;;;;;;;32.33;30.00;;;;;14.90;93.32;100023.34;6288203;20;3588802;-47
2022/05/05 06:38:47;;;;;;;;;34.00;30.00;;;;;15.24;90.79;100030.75;6286392;20;3527345;-45
2022/05/05 06:41:16;;;;;;;;;33.00;31.00;;;;;15.56;88.77;100031.91;6315143;20;3607544;-48
2022/05/05 06:43:45;;;;;;;;;26.33;26.33;;;;;15.26;89.74;100034.22;6287614;20;3600220;-47
2022/05/05 06:46:13;;;;;;;;;30.67;26.67;;;;;15.31;87.25;100037.44;6285774;20;3606476;-45
2022/05/05 06:48:47;;;;;;;;;28.67;27.33;;;;;15.06;88.77;100039.28;6284241;20;3589833;-46
2022/05/05 06:51:16;;;;;;;;;32.33;30.33;;;;;15.10;89.00;100040.78;6287787;20;3590872;-49
2022/05/05 06:53:46;;;;;;;;;30.67;29.33;;;;;15.34;89.08;100037.19;6284933;20;3599182;-46
2022/05/05 06:56:14;;;;;;;;;25.67;24.33;;;;;15.27;87.19;100041.34;6317217;20;3579375;-48
2022/05/05 06:58:44;;;;;;;;;31.00;27.67;;;;;15.05;87.56;100042.09;6284012;20;3596251;-49
2022/05/05 07:06:47;;;;;;;;;24.50;18.50;;;;;15.10;87.12;100038.06;6283846;20;2839842;-52
2022/05/05 07:12:03;;;;;;;;;34.00;30.67;;;;;15.01;88.34;100019.84;6287079;20;3577292;-51
2022/05/05 07:14:33;;;;;;;;;37.33;33.00;;;;;15.32;86.69;100028.34;6281898;20;3608626;-50
2022/05/05 07:17:02;;;;;;;;;30.33;27.00;;;;;15.27;86.47;100019.69;6319077;20;3598149;-47
2022/05/05 07:19:31;;;;;;;;;27.67;26.33;;;;;15.56;86.41;100018.38;6286111;20;3586700;-47
2022/05/05 07:21:59;;;;;;;;;34.00;30.67;;;;;15.56;86.34;100021.06;6284177;20;3593990;-47
2022/05/05 07:24:30;;;;;;;;;36.67;33.00;;;;;15.85;86.80;100019.78;6285370;20;3610896;-46
2022/05/05 07:27:02;;;;;;;;;30.67;29.33;;;;;16.17;84.34;100015.44;6285199;20;3578360;-46
2022/05/05 07:29:33;;;;;;;;;36.33;32.67;;;;;16.34;84.81;100019.50;6284786;20;3594029;-49
2022/05/05 07:32:02;;;;;;;;;31.00;29.00;;;;;16.60;85.69;100024.66;6291601;20;3618985;-45
2022/05/05 07:34:31;;;;;;;;;25.67;25.33;;;;;16.94;82.09;100019.22;6288701;20;3592954;-49
2022/05/05 07:37:00;;;;;;;;;25.00;23.33;;;;;17.52;80.79;100019.75;6291760;20;3582525;-47
2022/05/05 07:39:29;;;;;;;;;26.00;25.00;;;;;17.84;80.61;100018.88;6290746;20;3588838;-47
2022/05/05 07:41:58;;;;;;;;;22.00;20.67;;;;;18.32;78.31;100029.13;6290296;20;3574297;-47
2022/05/05 07:44:27;;;;;;;;;22.33;20.67;;;;;19.69;73.14;100032.06;6288884;20;2840978;-48
2022/05/05 07:46:57;;;;;;;;;19.67;19.00;;;;;20.42;68.06;100046.97;6320451;20;3558637;-52
2022/05/05 07:49:26;;;;;;;;;16.00;16.00;;;;;19.99;66.67;100048.41;6323386;20;3560642;-48
2022/05/05 07:51:54;;;;;;;;;19.33;19.33;;;;;19.19;69.61;100047.63;6288731;20;3575245;-49
2022/05/05 07:54:35;;;;;;;;;19.50;17.50;;;;;19.31;72.66;100051.97;6286789;20;2833568;-53
2022/05/05 07:57:07;;;;;;;;;26.67;18.33;;;;;18.87;70.66;100046.00;6287990;20;2856085;-48
2022/05/05 07:59:36;;;;;;;;;15.00;11.67;;;;;19.49;68.68;100047.53;6318570;20;3532532;-49
2022/05/05 08:02:13;;;;;;;;;16.50;16.50;;;;;19.65;68.47;100057.00;6320000;20;2827352;-49
2022/05/05 08:04:43;;;;;;;;;15.00;15.00;;;;;20.05;67.03;100054.09;6289696;20;2642001;-49
2022/05/05 08:07:12;;;;;;;;;15.50;15.50;;;;;20.48;65.86;100052.69;6286016;20;2487742;-49
2022/05/05 08:09:41;;;;;;;;;18.00;16.00;;;;;20.02;63.15;100048.09;6286213;20;2825299;-52
2022/05/05 08:12:29;;;;;;;;;14.00;14.00;;;;;20.47;63.08;100056.44;6287922;20;3530453;-50
2022/05/05 08:15:01;;;;;;;;;12.67;12.67;;;;;19.69;65.88;100058.44;6287840;20;3516114;-50
2022/05/05 08:17:29;;;;;;;;;13.67;13.67;;;;;19.52;64.57;100063.56;6323071;20;3538800;-47
2022/05/05 08:19:57;;;;;;;;;15.00;12.50;;;;;19.57;64.65;100065.03;6319988;20;2492482;-48
2022/05/05 08:22:27;;;;;;;;;13.00;13.00;;;;;19.49;63.98;100069.31;6288119;20;3517983;-49
2022/05/05 08:30:30;;;;;;;;;9.67;9.67;;;;;19.90;61.45;100069.19;6282334;20;3492988;-50
2022/05/05 08:32:59;;;;;;;;;12.33;12.33;;;;;19.50;62.79;100067.44;6319338;20;3537776;-51
2022/05/05 08:35:27;;;;;;;;;15.33;14.00;;;;;19.91;64.57;100063.59;6288171;20;2802320;-50
2022/05/05 08:37:57;;;;;;;;;10.67;10.67;;;;;19.95;62.94;100069.63;6318743;20;3509594;-48
2022/05/05 08:40:27;;;;;;;;;13.00;13.00;;;;;20.07;62.52;100073.06;6317155;20;3538778;-51
2022/05/05 08:42:56;;;;;;;;;8.33;8.00;;;;;20.12;60.37;100068.03;6283756;20;2747146;-50
2022/05/05 08:45:32;;;;;;;;;11.67;11.00;;;;;20.25;61.15;100065.84;6317722;20;3533611;-48
2022/05/05 08:48:11;;;;;;;;;11.00;11.00;;;;;20.57;58.71;100062.75;6294769;20;2786703;-48
2022/05/05 08:50:44;;;;;;;;;9.00;9.00;;;;;20.15;56.90;100065.00;6316055;20;2754558;-51
2022/05/05 08:53:15;;;;;;;;;10.67;10.00;;;;;20.62;59.46;100062.31;6319500;20;3521053;-49
2022/05/05 08:55:46;;;;;;;;;8.67;8.67;;;;;20.79;59.85;100072.41;6318564;20;2752752;-51
2022/05/05 08:58:15;;;;;;;;;12.00;12.00;;;;;20.42;59.60;100071.53;6317967;20;3513756;-50
2022/05/05 09:00:44;;;;;;;;;12.33;11.00;;;;;20.69;59.50;100062.56;6310069;20;3520049;-47
2022/05/05 09:03:13;;;;;;;;;12.33;12.33;;;;;20.94;60.65;100070.03;6319060;20;3535694;-50
2022/05/05 09:05:44;;;;;;;;;16.67;16.00;;;;;20.90;61.55;100071.34;6315278;20;2483591;-50
2022/05/05 09:08:32;;;;;;;;;16.50;15.50;;;;;21.22;63.59;100062.69;6318229;20;2821106;-49
2022/05/05 09:11:05;;;;;;;;;16.67;15.67;;;;;20.58;65.58;100067.19;6290904;20;3548175;-49
2022/05/05 09:13:37;;;;;;;;;15.50;14.50;;;;;20.41;66.47;100075.28;6285717;20;2812732;-50
2022/05/05 09:16:07;;;;;;;;;15.33;14.33;;;;;21.00;64.12;100071.31;6286485;20;3529431;-50
2022/05/05 09:18:36;;;;;;;;;17.67;15.67;;;;;21.02;64.01;100077.47;6289351;20;3548172;-51
2022/05/05 09:21:06;;;;;;;;;19.00;16.00;;;;;21.71;61.09;100081.47;6317178;20;3558541;-49
2022/05/05 09:24:34;;;;;;;;;16.33;15.00;;;;;21.77;61.40;100074.53;6318169;20;2483689;-51
2022/05/05 09:26:30;;;;;;;;;13.00;13.00;;;;;22.31;57.90;100078.06;6319172;20;3532676;-50
2022/05/05 09:28:59;;;;;;;;;16.00;16.00;;;;;22.36;59.76;100081.19;6316902;20;2825463;-56
2022/05/05 09:31:28;;;;;;;;;15.33;14.33;;;;;22.28;60.82;100092.09;6284803;20;3535814;-51
2022/05/05 09:33:56;;;;;;;;;11.00;10.67;;;;;22.57;59.04;100092.59;6284347;20;3516275;-50
2022/05/05 09:36:29;;;;;;;;;15.67;15.00;;;;;22.38;58.26;100084.63;6315519;20;3533567;-48
2022/05/05 09:39:03;;;;;;;;;13.00;11.33;;;;;22.17;59.68;100086.81;6282639;20;3515869;-53
2022/05/05 09:41:34;;;;;;;;;11.00;11.00;;;;;22.29;58.01;100086.44;6318967;20;3510700;-53
2022/05/05 09:44:13;;;;;;;;;18.33;15.00;;;;;22.94;58.42;100090.56;6318331;20;3556466;-53
2022/05/05 09:46:43;;;;;;;;;10.00;10.00;;;;;22.94;55.69;100099.66;6316961;20;2794139;-57
2022/05/05 09:49:20;;;;;;;;;14.00;13.00;;;;;22.97;58.05;100101.22;6315795;20;2800322;-57
2022/05/05 09:57:41;;;;;;;;;13.67;13.67;;;;;22.93;59.98;100097.94;6321171;20;3528416;-55
2022/05/05 10:00:44;;;;;;;;;13.00;13.00;;;;;22.98;57.43;100098.31;6315267;20;3530498;-57
2022/05/05 10:04:05;;;;;;;;;12.00;11.00;;;;;23.69;53.54;100095.25;6287739;20;3518313;-58
2022/05/05 10:06:40;;;;;;;;;10.00;10.00;;;;;24.01;52.29;100094.44;6310033;20;3512726;-57
2022/05/05 10:09:12;;;;;;;;;11.67;11.00;;;;;23.83;53.68;100087.28;6314351;20;3524335;-56
2022/05/05 10:11:42;;;;;;;;;10.33;10.33;;;;;23.61;53.44;100085.13;6282289;20;3512769;-57
2022/05/05 10:14:14;;;;;;;;;11.67;11.00;;;;;23.07;55.42;100091.00;6321927;20;2809674;-57
2022/05/05 10:16:43;;;;;;;;;13.67;13.00;;;;;22.49;56.15;100081.63;6317771;20;3535721;-56
2022/05/05 10:19:12;;;;;;;;;8.67;6.67;;;;;22.93;54.32;100088.84;6317417;20;2742981;-57
2022/05/05 10:21:54;;;;;;;;;10.67;9.67;;;;;23.88;52.71;100094.97;6313817;20;2778572;-56
2022/05/05 10:24:31;;;;;;;;;10.00;10.00;;;;;23.76;51.23;100090.84;6314867;20;2794018;-57
2022/05/05 10:27:03;;;;;;;;;8.67;7.33;;;;;24.71;48.64;100092.00;6317365;20;2753609;-57
2022/05/05 10:29:32;;;;;;;;;11.33;10.67;;;;;23.69;50.90;100090.63;6319587;20;2786798;-58
2022/05/05 10:32:20;;;;;;;;;12.00;12.00;;;;;24.67;52.78;100090.66;6316455;20;3521100;-58
2022/05/05 10:35:22;;;;;;;;;15.00;12.50;;;;;24.12;54.50;100085.91;6315955;20;2483630;-57
2022/05/05 10:37:53;;;;;;;;;9.80;9.80;;;;;24.53;52.95;100080.38;6343819;20;2789244;-57
2022/05/05 10:40:23;;;;;;;;;9.00;9.00;;;;;24.26;53.54;100093.41;6312864;20;2753401;-58
2022/05/05 10:42:52;;;;;;;;;10.00;10.00;;;;;24.52;52.46;100092.41;6322644;20;2778442;-56
2022/05/05 10:45:30;;;;;;;;;14.00;11.33;;;;;24.39;53.62;100090.16;6318029;20;3507660;-58
2022/05/05 10:47:59;;;;;;;;;9.67;9.67;;;;;24.39;52.36;100092.91;6314355;20;3481514;-59
2022/05/05 10:51:05;;;;;;;;;11.00;11.00;;;;;24.17;53.12;100083.50;6312224;20;3520036;-58
2022/05/05 10:53:42;;;;;;;;;9.67;9.33;;;;;23.07;52.78;100079.19;6316770;20;3496230;-57
2022/05/05 10:56:31;;;;;;;;;8.00;8.00;;;;;22.94;53.13;100075.00;6322700;20;2743131;-56
2022/05/05 10:59:03;;;;;;;;;9.00;9.00;;;;;23.29;51.27;100073.09;6315093;20;2699260;-55
2022/05/05 11:01:42;;;;;;;;;8.00;8.00;;;;;23.81;49.51;100075.59;6343340;20;2737764;-57
2022/05/05 11:04:17;;;;;;;;;11.33;11.33;;;;;24.84;52.35;100082.34;6283379;20;3514839;-58
2022/05/05 11:06:49;;;;;;;;;13.33;12.00;;;;;25.55;50.70;100077.72;6323536;20;3538753;-59
2022/05/05 11:09:34;;;;;;;;;9.00;8.67;;;;;25.01;51.82;100081.22;6316647;20;3477285;-58
2022/05/05 11:12:21;;;;;;;;;9.67;9.67;;;;;25.53;50.41;100075.13;6322330;20;2774309;-58
2022/05/05 11:23:50;;;;;;;;;6.80;6.40;;;;;26.15;43.88;100082.44;6343734;20;2744020;-58
2022/05/05 11:26:21;;;;;;;;;6.67;6.67;;;;;25.47;44.40;100070.38;6292423;20;2737743;-58
2022/05/05 11:28:50;;;;;;;;;4.67;4.67;;;;;24.80;43.46;100072.72;6321043;20;2748203;-58
2022/05/05 11:31:30;;;;;;;;;7.67;7.67;;;;;25.06;42.92;100066.97;6322726;20;2746165;-58
2022/05/05 11:34:03;;;;;;;;;9.00;9.00;;;;;25.72;45.77;100064.69;6321288;20;2742981;-58
2022/05/05 11:36:41;;;;;;;;;5.80;5.80;;;;;25.69;41.97;100068.66;6346239;20;2738811;-58
2022/05/05 11:39:10;;;;;;;;;5.67;5.67;;;;;25.20;42.15;100060.75;6293171;20;2732596;-58
2022/05/05 11:41:39;;;;;;;;;4.33;4.33;;;;;25.95;42.22;100068.31;6320773;20;2740961;-57
2022/05/05 11:44:16;;;;;;;;;5.60;5.60;;;;;24.80;43.84;100061.75;6346795;20;2734756;-58
2022/05/05 11:46:45;;;;;;;;;7.00;7.00;;;;;23.60;44.16;100053.28;6322814;20;2740927;-58
2022/05/05 11:49:13;;;;;;;;;10.00;7.00;;;;;24.41;41.79;100054.28;6320766;20;2760664;-58
2022/05/05 11:51:42;;;;;;;;;6.33;6.33;;;;;25.29;41.24;100056.91;6322446;20;2737900;-58
2022/05/05 11:54:15;;;;;;;;;7.33;7.00;;;;;24.86;41.44;100050.06;6317042;20;2754452;-57
2022/05/05 11:56:51;;;;;;;;;8.60;7.80;;;;;24.32;44.07;100051.56;6346028;20;2746107;-58
2022/05/05 12:02:18;;;;;;;;;7.67;6.00;;;;;24.94;40.24;100058.28;6297098;20;2737797;-58
2022/05/05 12:04:53;;;;;;;;;8.67;6.33;;;;;25.00;39.39;100048.44;6324225;20;2739827;-57